createdAt,value
2022-09-17T00:01:17.183Z,95466.66
2022-09-17T00:03:45.675Z,95479.81
2022-09-17T00:06:13.016Z,95474.53
2022-09-17T00:08:42.116Z,95490.81
2022-09-17T00:11:21.517Z,95486.13
2022-09-17T00:13:50.368Z,95486.41
2022-09-17T00:16:46.155Z,95498.72
2022-09-17T00:19:23.177Z,95512.69
2022-09-17T00:21:50.820Z,95514.78
2022-09-17T00:24:18.957Z,95514.53
2022-09-17T00:26:46.016Z,95512.41
2022-09-17T00:29:13.435Z,95521.38
2022-09-17T00:31:45.746Z,95514.53
2022-09-17T00:34:13.036Z,95512.41
2022-09-17T00:36:40.135Z,95504.00
2022-09-17T00:39:09.556Z,95506.34
2022-09-17T00:41:38.017Z,95499.31
2022-09-17T00:44:42.157Z,95501.94
2022-09-17T00:47:22.486Z,95490.41
2022-09-17T00:49:52.955Z,95481.28
2022-09-17T00:52:26.316Z,95474.22
2022-09-17T00:55:00.118Z,95470.22
2022-09-17T00:57:27.403Z,95480.28
2022-09-17T00:59:54.796Z,95491.38
2022-09-17T01:02:21.977Z,95487.97
2022-09-17T01:04:49.138Z,95481.16
2022-09-17T01:07:53.416Z,95470.66
2022-09-17T01:10:34.503Z,95464.13
2022-09-17T01:13:28.056Z,95463.59
2022-09-17T01:16:17.440Z,95457.03
2022-09-17T01:19:00.935Z,95458.16
2022-09-17T01:21:39.558Z,95463.66
2022-09-17T01:24:26.495Z,95471.41
2022-09-17T01:27:25.695Z,95483.50
2022-09-17T01:30:16.855Z,95490.84
2022-09-17T01:33:07.184Z,95482.19
2022-09-17T01:35:48.815Z,95473.50
2022-09-17T01:38:34.820Z,95459.31
2022-09-17T01:41:37.163Z,95449.56
2022-09-17T01:44:39.476Z,95444.91
2022-09-17T01:47:20.760Z,95436.50
2022-09-17T01:49:52.918Z,95431.00
2022-09-17T01:52:21.056Z,95434.13
2022-09-17T01:54:53.258Z,95439.91
2022-09-17T01:57:26.215Z,95425.50
2022-09-17T02:00:02.195Z,95420.72
2022-09-17T02:02:56.237Z,95427.88
2022-09-17T02:05:43.404Z,95433.66
2022-09-17T02:08:22.498Z,95434.44
2022-09-17T02:11:02.798Z,95440.53
2022-09-17T02:13:52.376Z,95442.91
2022-09-17T02:16:29.270Z,95444.25
2022-09-17T02:19:16.597Z,95449.72
2022-09-17T02:22:06.998Z,95455.78
2022-09-17T02:25:01.565Z,95461.59
2022-09-17T02:27:49.795Z,95473.69
2022-09-17T02:30:17.691Z,95482.63
2022-09-17T02:32:44.915Z,95483.41
2022-09-17T02:35:14.163Z,95461.59
2022-09-17T02:37:43.034Z,95441.63
2022-09-17T02:40:13.992Z,95430.56
2022-09-17T02:43:36.114Z,95433.72
2022-09-17T02:46:36.832Z,95436.34
2022-09-17T02:49:15.895Z,95426.38
2022-09-17T02:52:01.634Z,95421.94
2022-09-17T02:54:46.683Z,95424.63
2022-09-17T02:57:13.665Z,95433.03
2022-09-17T02:59:52.883Z,95425.94
2022-09-17T03:02:26.812Z,95426.97
2022-09-17T03:04:56.595Z,95419.88
2022-09-17T03:07:24.242Z,95419.88
2022-09-17T03:09:51.335Z,95413.84
2022-09-17T03:12:18.603Z,95405.44
2022-09-17T03:14:45.698Z,95400.19
2022-09-17T03:17:13.175Z,95389.72
2022-09-17T03:19:40.234Z,95387.88
2022-09-17T03:22:07.215Z,95378.97
2022-09-17T03:24:34.222Z,95385.53
2022-09-17T03:27:01.255Z,95381.09
2022-09-17T03:29:28.295Z,95392.38
2022-09-17T03:31:55.318Z,95394.81
2022-09-17T03:34:22.484Z,95392.19
2022-09-17T03:36:49.718Z,95393.25
2022-09-17T03:39:16.735Z,95408.75
2022-09-17T03:41:43.858Z,95408.47
2022-09-17T03:44:10.842Z,95407.13
2022-09-17T03:46:38.354Z,95410.78
2022-09-17T03:49:05.563Z,95417.09
2022-09-17T03:51:32.934Z,95419.16
2022-09-17T03:53:59.961Z,95413.88
2022-09-17T03:56:27.324Z,95406.53
2022-09-17T03:59:01.105Z,95417.56
2022-09-17T04:01:29.320Z,95414.38
2022-09-17T04:03:56.345Z,95406.22
2022-09-17T04:06:23.275Z,95404.66
2022-09-17T04:08:50.434Z,95408.06
2022-09-17T04:11:17.617Z,95406.50
2022-09-17T04:13:44.615Z,95407.00
2022-09-17T04:16:12.630Z,95409.41
2022-09-17T04:18:39.735Z,95416.50
2022-09-17T04:21:07.466Z,95416.25
2022-09-17T04:23:34.657Z,95402.59
2022-09-17T04:26:01.978Z,95381.56
2022-09-17T04:28:29.097Z,95373.41
2022-09-17T04:30:56.379Z,95374.75
2022-09-17T04:33:23.816Z,95387.09
2022-09-17T04:35:50.944Z,95385.78
2022-09-17T04:38:21.065Z,95379.72
2022-09-17T04:40:48.239Z,95388.69
2022-09-17T04:43:15.240Z,95400.25
2022-09-17T04:45:42.209Z,95405.50
2022-09-17T04:48:09.180Z,95402.34
2022-09-17T04:50:36.281Z,95367.19
2022-09-17T04:53:03.580Z,95384.50
2022-09-17T04:55:31.507Z,95430.25
2022-09-17T04:57:58.721Z,95439.66
2022-09-17T05:00:26.019Z,95448.84
2022-09-17T05:02:55.070Z,95432.88
2022-09-17T05:05:23.100Z,95422.09
2022-09-17T05:07:50.160Z,95414.47
2022-09-17T05:10:19.741Z,95415.53
2022-09-17T05:12:54.453Z,95426.81
2022-09-17T05:15:23.559Z,95427.84
2022-09-17T05:17:50.681Z,95419.44
2022-09-17T05:20:18.044Z,95407.06
2022-09-17T05:22:52.649Z,95398.59
2022-09-17T05:25:24.734Z,95385.78
2022-09-17T05:27:53.665Z,95375.00
2022-09-17T05:30:21.282Z,95358.47
2022-09-17T05:32:48.675Z,95361.34
2022-09-17T05:35:15.719Z,95376.88
2022-09-17T05:37:42.660Z,95371.34
2022-09-17T05:40:10.452Z,95383.72
2022-09-17T05:42:37.540Z,95393.94
2022-09-17T05:45:05.842Z,95389.19
2022-09-17T05:47:32.700Z,95383.16
2022-09-17T05:50:00.000Z,95367.69
2022-09-17T05:52:29.200Z,95375.03
2022-09-17T05:54:56.950Z,95374.78
2022-09-17T05:57:24.180Z,95383.72
2022-09-17T05:59:51.174Z,95387.91
2022-09-17T06:02:18.341Z,95413.63
2022-09-17T06:04:46.212Z,95424.13
2022-09-17T06:07:13.139Z,95410.22
2022-09-17T06:09:41.218Z,95409.72
2022-09-17T06:12:08.663Z,95411.28
2022-09-17T06:14:35.637Z,95421.00
2022-09-17T06:17:02.540Z,95402.34
2022-09-17T06:19:29.540Z,95395.53
2022-09-17T06:21:56.601Z,95400.25
2022-09-17T06:24:23.589Z,95416.03
2022-09-17T06:26:52.189Z,95413.88
2022-09-17T06:29:19.341Z,95405.78
2022-09-17T06:31:48.730Z,95394.75
2022-09-17T06:34:16.090Z,95393.97
2022-09-17T06:36:43.040Z,95401.31
2022-09-17T06:39:11.908Z,95405.50
2022-09-17T06:41:39.264Z,95410.22
2022-09-17T06:44:06.378Z,95417.56
2022-09-17T06:46:33.387Z,95418.34
2022-09-17T06:49:00.781Z,95424.13
2022-09-17T06:51:27.980Z,95431.53
2022-09-17T06:53:54.911Z,95431.75
2022-09-17T06:56:21.890Z,95451.16
2022-09-17T06:58:49.022Z,95469.53
2022-09-17T07:01:16.001Z,95456.16
2022-09-17T07:03:43.782Z,95451.41
2022-09-17T07:06:11.336Z,95445.09
2022-09-17T07:08:39.697Z,95437.75
2022-09-17T07:11:07.030Z,95441.69
2022-09-17T07:13:34.161Z,95429.06
2022-09-17T07:16:02.919Z,95418.00
2022-09-17T07:18:30.282Z,95422.47
2022-09-17T07:21:02.211Z,95429.56
2022-09-17T07:23:32.188Z,95430.34
2022-09-17T07:26:01.788Z,95425.88
2022-09-17T07:28:29.588Z,95425.31
2022-09-17T07:30:57.405Z,95436.09
2022-09-17T07:33:27.110Z,95437.09
2022-09-17T07:35:54.941Z,95450.50
2022-09-17T07:38:23.016Z,95453.41
2022-09-17T07:40:58.207Z,95457.56
2022-09-17T07:43:30.682Z,95454.91
2022-09-17T07:45:59.400Z,95464.34
2022-09-17T07:48:28.402Z,95467.28
2022-09-17T07:50:55.540Z,95469.91
2022-09-17T07:53:22.972Z,95470.91
2022-09-17T07:56:00.362Z,95488.00
2022-09-17T07:58:34.515Z,95487.22
2022-09-17T08:01:09.431Z,95484.59
2022-09-17T08:03:37.983Z,95479.31
2022-09-17T08:06:05.599Z,95481.69
2022-09-17T08:08:37.540Z,95475.34
2022-09-17T08:11:07.920Z,95463.78
2022-09-17T08:13:36.463Z,95459.31
2022-09-17T08:16:06.390Z,95461.41
2022-09-17T08:18:33.800Z,95460.59
2022-09-17T08:21:05.159Z,95459.56
2022-09-17T08:23:35.320Z,95459.03
2022-09-17T08:26:02.968Z,95456.09
2022-09-17T08:28:31.470Z,95465.56
2022-09-17T08:31:08.522Z,95482.41
2022-09-17T08:33:38.940Z,95478.16
2022-09-17T08:36:07.960Z,95493.66
2022-09-17T08:38:39.361Z,95507.59
2022-09-17T08:41:40.304Z,95522.56
2022-09-17T08:44:16.060Z,95532.03
2022-09-17T08:47:00.652Z,95529.69
2022-09-17T08:49:56.260Z,95525.16
2022-09-17T08:52:42.009Z,95526.22
2022-09-17T08:55:29.379Z,95511.75
2022-09-17T08:58:18.078Z,95496.50
2022-09-17T09:01:06.270Z,95473.38
2022-09-17T09:03:52.012Z,95467.03
2022-09-17T09:06:25.620Z,95459.34
2022-09-17T09:09:01.708Z,95456.25
2022-09-17T09:11:31.561Z,95463.81
2022-09-17T09:14:13.300Z,95472.81
2022-09-17T09:16:45.521Z,95484.38
2022-09-17T09:19:27.100Z,95486.72
2022-09-17T09:22:12.398Z,95485.13
2022-09-17T09:24:52.890Z,95480.09
2022-09-17T09:27:28.778Z,95483.75
2022-09-17T09:30:05.741Z,95493.72
2022-09-17T09:32:40.460Z,95502.38
2022-09-17T09:35:20.660Z,95505.50
2022-09-17T09:38:12.876Z,95504.63
2022-09-17T09:41:04.368Z,95493.84
2022-09-17T09:44:04.010Z,95491.22
2022-09-17T09:46:41.989Z,95479.38
2022-09-17T09:49:24.310Z,95473.56
2022-09-17T09:52:19.940Z,95465.41
2022-09-17T09:55:24.576Z,95444.22
2022-09-17T09:58:04.260Z,95438.94
2022-09-17T10:00:37.411Z,95439.16
2022-09-17T10:03:27.570Z,95438.03
2022-09-17T10:05:59.131Z,95431.03
2022-09-17T10:08:27.560Z,95420.94
2022-09-17T10:10:56.160Z,95425.06
2022-09-17T10:13:23.929Z,95428.97
2022-09-17T10:15:51.081Z,95429.72
2022-09-17T10:18:20.610Z,95430.19
2022-09-17T10:20:56.270Z,95440.53
2022-09-17T10:23:26.099Z,95438.94
2022-09-17T10:25:56.280Z,95438.69
2022-09-17T10:28:48.122Z,95437.63
2022-09-17T10:31:15.404Z,95426.00
2022-09-17T10:34:04.841Z,95417.00
2022-09-17T10:36:52.470Z,95423.25
2022-09-17T10:39:25.673Z,95425.75
2022-09-17T10:41:59.799Z,95433.06
2022-09-17T10:44:32.249Z,95436.44
2022-09-17T10:47:26.262Z,95436.56
2022-09-17T10:50:08.370Z,95441.28
2022-09-17T10:52:39.578Z,95448.25
2022-09-17T10:55:50.521Z,95448.09
2022-09-17T10:58:23.381Z,95447.56
2022-09-17T11:13:35.368Z,95444.28
2022-09-17T11:16:05.068Z,95431.47
2022-09-17T11:18:45.648Z,95417.44
2022-09-17T11:21:47.280Z,95408.13
2022-09-17T11:24:35.622Z,95401.38
2022-09-17T11:27:16.862Z,95400.22
2022-09-17T11:30:02.080Z,95406.09
2022-09-17T11:32:49.714Z,95396.19
2022-09-17T11:35:18.660Z,95400.09
2022-09-17T11:38:14.770Z,95406.81
2022-09-17T11:40:50.790Z,95408.09
2022-09-17T11:43:26.791Z,95412.91
2022-09-17T11:46:05.797Z,95416.84
2022-09-17T11:48:40.574Z,95407.16
2022-09-17T11:51:20.630Z,95399.94
2022-09-17T11:53:59.056Z,95379.88
2022-09-17T11:56:35.941Z,95352.34
2022-09-17T11:59:14.958Z,95336.31
2022-09-17T12:01:58.247Z,95322.53
2022-09-17T12:04:52.673Z,95331.06
2022-09-17T12:07:46.010Z,95332.00
2022-09-17T12:10:25.705Z,95325.56
2022-09-17T12:12:58.930Z,95327.25
2022-09-17T12:15:30.032Z,95314.81
2022-09-17T12:18:33.974Z,95320.50
2022-09-17T12:21:05.251Z,95317.34
2022-09-17T12:23:35.591Z,95327.81
2022-09-17T12:26:45.360Z,95345.03
2022-09-17T12:29:24.600Z,95341.41
2022-09-17T12:32:48.921Z,95335.53
2022-09-17T12:39:02.687Z,95338.56
2022-09-17T12:41:49.351Z,95342.94
2022-09-17T12:44:24.180Z,95328.78
2022-09-17T12:47:42.529Z,95325.72
2022-09-17T12:50:18.312Z,95313.09
2022-09-17T12:53:13.391Z,95299.22
2022-09-17T12:56:05.920Z,95321.09
2022-09-17T12:58:43.121Z,95335.53
2022-09-17T13:01:22.015Z,95347.47
2022-09-17T13:03:56.040Z,95353.81
2022-09-17T13:07:07.979Z,95366.22
2022-09-17T13:09:53.671Z,95372.00
2022-09-17T13:12:20.600Z,95370.00
2022-09-17T13:15:06.880Z,95372.44
2022-09-17T13:18:13.250Z,95378.56
2022-09-17T13:21:02.168Z,95371.44
2022-09-17T13:23:40.779Z,95368.31
2022-09-17T13:26:09.819Z,95371.72
2022-09-17T13:28:48.200Z,95368.16
2022-09-17T13:31:44.775Z,95377.28
2022-09-17T13:34:17.926Z,95378.22
2022-09-17T13:36:52.509Z,95373.44
2022-09-17T13:39:40.964Z,95380.00
2022-09-17T13:42:19.659Z,95390.84
2022-09-17T13:44:52.227Z,95387.28
2022-09-17T13:47:22.150Z,95397.94
2022-09-17T13:49:54.470Z,95400.03
2022-09-17T13:52:48.801Z,95409.97
2022-09-17T13:55:52.534Z,95392.19
2022-09-17T13:58:19.420Z,95375.09
2022-09-17T14:01:13.287Z,95378.88
2022-09-17T14:03:46.818Z,95376.94
2022-09-17T14:06:15.089Z,95384.91
2022-09-17T14:08:41.802Z,95374.59
2022-09-17T14:11:29.590Z,95370.38
2022-09-17T14:14:05.590Z,95367.53
2022-09-17T14:16:37.540Z,95353.56
2022-09-17T14:19:16.763Z,95351.22
2022-09-17T14:22:25.161Z,95343.81
2022-09-17T14:24:54.479Z,95340.47
2022-09-17T14:27:40.099Z,95330.41
2022-09-17T14:30:13.658Z,95317.53
2022-09-17T14:33:01.844Z,95322.78
2022-09-17T14:35:43.040Z,95320.47
2022-09-17T14:38:14.580Z,95319.41
2022-09-17T14:41:02.086Z,95312.13
2022-09-17T14:44:03.951Z,95304.22
2022-09-17T14:46:35.109Z,95308.44
2022-09-17T14:49:23.181Z,95303.44
2022-09-17T14:51:50.640Z,95304.78
2022-09-17T14:54:25.192Z,95304.50
2022-09-17T14:57:03.580Z,95307.69
2022-09-17T14:59:52.471Z,95301.66
2022-09-17T15:02:43.545Z,95301.16
2022-09-17T15:05:18.420Z,95305.38
2022-09-17T15:07:46.485Z,95303.50
2022-09-17T15:10:22.578Z,95307.50
2022-09-17T15:12:51.016Z,95308.81
2022-09-17T15:15:26.580Z,95315.94
2022-09-17T15:17:54.623Z,95314.66
2022-09-17T15:20:31.494Z,95320.69
2022-09-17T15:23:20.479Z,95318.97
2022-09-17T15:25:49.930Z,95324.53
2022-09-17T15:28:30.901Z,95322.69
2022-09-17T15:30:58.045Z,95315.31
2022-09-17T15:33:25.170Z,95319.03
2022-09-17T15:36:00.523Z,95311.44
2022-09-17T15:38:29.741Z,95322.22
2022-09-17T15:41:24.080Z,95314.88
2022-09-17T15:43:51.582Z,95314.09
2022-09-17T15:46:30.328Z,95315.69
2022-09-17T15:49:02.238Z,95322.31
2022-09-17T15:51:35.729Z,95321.28
2022-09-17T15:54:05.314Z,95322.63
2022-09-17T15:56:38.339Z,95330.81
2022-09-17T15:59:44.192Z,95326.88
2022-09-17T16:02:27.266Z,95331.88
2022-09-17T16:05:18.931Z,95332.44
2022-09-17T16:07:46.281Z,95344.59
2022-09-17T16:10:15.480Z,95344.34
2022-09-17T16:12:43.068Z,95350.75
2022-09-17T16:15:10.289Z,95353.66
2022-09-17T16:17:37.158Z,95351.31
2022-09-17T16:20:24.863Z,95347.38
2022-09-17T16:22:53.100Z,95334.00
2022-09-17T16:25:23.200Z,95339.56
2022-09-17T16:28:22.500Z,95337.75
2022-09-17T16:30:49.851Z,95339.91
2022-09-17T16:33:18.731Z,95337.63
2022-09-17T16:35:45.761Z,95344.50
2022-09-17T16:38:13.172Z,95340.06
2022-09-17T16:40:42.165Z,95353.47
2022-09-17T16:43:10.060Z,95342.00
2022-09-17T16:45:37.421Z,95347.75
2022-09-17T16:48:05.878Z,95352.09
2022-09-17T16:50:33.780Z,95353.72
2022-09-17T16:53:04.874Z,95355.56
2022-09-17T16:55:32.721Z,95349.00
2022-09-17T16:57:59.839Z,95347.16
2022-09-17T17:00:27.431Z,95356.88
2022-09-17T17:02:57.126Z,95356.88
2022-09-17T17:05:26.061Z,95352.69
2022-09-17T17:07:55.438Z,95359.56
2022-09-17T17:10:28.481Z,95359.88
2022-09-17T17:12:56.512Z,95367.50
2022-09-17T17:15:23.908Z,95362.56
2022-09-17T17:17:51.660Z,95367.66
2022-09-17T17:20:19.320Z,95360.38
2022-09-17T17:22:46.381Z,95371.44
2022-09-17T17:25:15.470Z,95375.16
2022-09-17T17:27:44.630Z,95371.47
2022-09-17T17:30:17.797Z,95383.56
2022-09-17T17:32:49.320Z,95390.66
2022-09-17T17:35:16.380Z,95381.97
2022-09-17T17:37:43.940Z,95390.38
2022-09-17T17:40:11.023Z,95398.22
2022-09-17T17:42:39.680Z,95406.13
2022-09-17T17:45:07.987Z,95417.69
2022-09-17T17:47:35.121Z,95416.13
2022-09-17T17:50:02.582Z,95424.00
2022-09-17T17:52:29.810Z,95420.31
2022-09-17T17:54:56.801Z,95430.28
2022-09-17T17:57:23.741Z,95433.75
2022-09-17T17:59:50.731Z,95439.78
2022-09-17T18:02:17.784Z,95431.94
2022-09-17T18:04:44.890Z,95432.19
2022-09-17T18:07:11.875Z,95430.34
2022-09-17T18:09:38.864Z,95436.41
2022-09-17T18:12:06.262Z,95446.66
2022-09-17T18:14:33.323Z,95443.28
2022-09-17T18:17:00.271Z,95448.53
2022-09-17T18:19:27.200Z,95457.19
2022-09-17T18:21:54.783Z,95470.84
2022-09-17T18:24:21.823Z,95467.41
2022-09-17T18:26:48.881Z,95467.69
2022-09-17T18:29:15.872Z,95473.97
2022-09-17T18:31:44.769Z,95476.34
2022-09-17T18:34:14.149Z,95481.34
2022-09-17T18:36:43.460Z,95490.75
2022-09-17T18:42:02.182Z,95498.34
2022-09-17T18:44:29.220Z,95496.28
2022-09-17T18:46:56.332Z,95498.09
2022-09-17T18:49:23.440Z,95498.63
2022-09-17T18:51:50.341Z,95496.81
2022-09-17T18:54:17.255Z,95498.63
2022-09-17T18:56:44.280Z,95495.75
2022-09-17T18:59:11.583Z,95493.91
2022-09-17T19:01:38.613Z,95510.69
2022-09-17T19:04:07.935Z,95501.78
2022-09-17T19:06:35.645Z,95507.03
2022-09-17T19:09:04.486Z,95511.47
2022-09-17T19:11:31.550Z,95504.41
2022-09-17T19:13:58.862Z,95507.78
2022-09-17T19:16:25.969Z,95502.28
2022-09-17T19:18:53.161Z,95502.84
2022-09-17T19:21:21.879Z,95511.47
2022-09-17T19:23:52.980Z,95508.34
2022-09-17T19:26:22.495Z,95527.19
2022-09-17T19:28:52.921Z,95526.66
2022-09-17T19:31:20.380Z,95529.03
2022-09-17T19:33:48.181Z,95528.22
2022-09-17T19:36:16.670Z,95525.88
2022-09-17T19:38:43.961Z,95539.75
2022-09-17T19:41:20.031Z,95525.84
2022-09-17T19:43:47.420Z,95522.16
2022-09-17T19:46:17.008Z,95521.59
2022-09-17T19:48:53.280Z,95529.47
2022-09-17T19:51:21.610Z,95538.94
2022-09-17T19:53:48.469Z,95531.84
2022-09-17T19:56:18.690Z,95527.91
2022-09-17T19:58:45.797Z,95531.56
2022-09-17T20:01:13.948Z,95537.06
2022-09-17T20:03:42.901Z,95526.81
2022-09-17T20:06:12.310Z,95523.69
2022-09-17T20:08:50.481Z,95525.78
2022-09-17T20:11:19.901Z,95526.03
2022-09-17T20:13:47.203Z,95528.41
2022-09-17T20:16:20.432Z,95527.63
2022-09-17T20:18:49.210Z,95531.56
2022-09-17T20:21:17.629Z,95533.09
2022-09-17T20:23:45.669Z,95537.31
2022-09-17T20:26:12.828Z,95537.34
2022-09-17T20:28:40.280Z,95537.59
2022-09-17T20:31:12.891Z,95542.84
2022-09-17T20:33:40.430Z,95539.97
2022-09-17T20:36:11.360Z,95551.97
2022-09-17T20:41:25.960Z,95573.97
2022-09-17T20:43:53.867Z,95571.13
2022-09-17T20:46:27.582Z,95571.13
2022-09-17T20:48:57.784Z,95572.97
2022-09-17T20:51:28.120Z,95562.22
2022-09-17T20:53:55.521Z,95566.13
2022-09-17T20:56:24.621Z,95571.34
2022-09-17T20:59:03.413Z,95574.94
2022-09-17T21:01:36.107Z,95583.88
2022-09-17T21:04:05.246Z,95581.50
2022-09-17T21:06:35.303Z,95583.59
2022-09-17T21:09:03.176Z,95584.69
2022-09-17T21:11:31.560Z,95583.34
2022-09-17T21:13:59.711Z,95593.03
2022-09-17T21:16:27.343Z,95583.34
2022-09-17T21:19:05.022Z,95587.31
2022-09-17T21:21:34.652Z,95588.63
2022-09-17T21:24:03.271Z,95584.69
2022-09-17T21:26:30.555Z,95589.69
2022-09-17T21:28:57.963Z,95589.16
2022-09-17T21:31:32.117Z,95592.56
2022-09-17T21:34:02.103Z,95580.50
2022-09-17T21:36:32.290Z,95586.03
2022-09-17T21:39:05.309Z,95592.84
2022-09-17T21:41:32.501Z,95597.06
2022-09-17T21:44:00.015Z,95598.59
2022-09-17T21:46:29.391Z,95592.84
2022-09-17T21:49:00.158Z,95592.84
2022-09-17T21:51:30.808Z,95594.44
2022-09-17T21:54:00.626Z,95593.91
2022-09-17T21:56:29.261Z,95606.19
2022-09-17T21:59:01.640Z,95598.84
2022-09-17T22:01:31.920Z,95604.38
2022-09-17T22:04:00.146Z,95599.13
2022-09-17T22:06:29.400Z,95610.09
2022-09-17T22:08:57.402Z,95621.91
2022-09-17T22:11:32.889Z,95611.94
2022-09-17T22:14:05.400Z,95606.94
2022-09-17T22:16:36.108Z,95610.56
2022-09-17T22:19:04.339Z,95609.94
2022-09-17T22:21:33.209Z,95618.88
2022-09-17T22:24:02.104Z,95612.09
2022-09-17T22:26:32.085Z,95614.69
2022-09-17T22:29:07.361Z,95617.78
2022-09-17T22:31:34.559Z,95614.66
2022-09-17T22:34:02.144Z,95606.50
2022-09-17T22:36:29.980Z,95605.72
2022-09-17T22:38:58.718Z,95602.59
2022-09-17T22:41:28.086Z,95599.41
2022-09-17T22:44:03.119Z,95595.53
2022-09-17T22:46:32.757Z,95601.00
2022-09-17T22:49:00.459Z,95608.28
2022-09-17T22:51:29.395Z,95606.25
2022-09-17T22:53:57.120Z,95609.06
2022-09-17T22:56:24.821Z,95604.41
2022-09-17T22:58:52.119Z,95596.00
2022-09-17T23:01:22.290Z,95601.72
2022-09-17T23:03:51.566Z,95602.00
2022-09-17T23:06:22.780Z,95600.22
2022-09-17T23:08:50.470Z,95605.66
2022-09-17T23:11:30.823Z,95609.31
2022-09-17T23:14:02.389Z,95598.03
2022-09-17T23:16:40.521Z,95609.31
2022-09-17T23:19:07.489Z,95603.81
2022-09-17T23:21:34.599Z,95608.22
2022-09-17T23:24:01.960Z,95605.06
2022-09-17T23:26:29.260Z,95595.59
2022-09-17T23:28:58.959Z,95597.97
2022-09-17T23:31:29.479Z,95599.75
2022-09-17T23:33:56.811Z,95599.28
2022-09-17T23:36:29.539Z,95601.81
2022-09-17T23:38:58.320Z,95609.97
2022-09-17T23:41:31.863Z,95604.41
2022-09-17T23:44:00.891Z,95605.44
2022-09-17T23:46:35.063Z,95597.31
2022-09-17T23:49:04.122Z,95606.94
2022-09-17T23:51:33.802Z,95611.16
2022-09-17T23:54:00.981Z,95615.00
2022-09-17T23:56:28.969Z,95622.06
2022-09-17T23:58:57.010Z,95628.41
